Time;durP1;ratioP1;P1;durP2;ratioP2;P2;SDS_P1;SDS_P2;PMS_P1;PMS_P2;Temp;Humidity;BMP_temperature;BMP_pressure;BME280_temperature;BME280_humidity;BME280_pressure;Samples;Min_cycle;Max_cycle;Signal;HPM_P1;HPM_P2
2021/10/02 00:41:09;;;;;;;7.47;2.17;;;;;;;;;;4924868;29;20043;-71
2021/10/02 00:46:20;;;;;;;5.47;1.67;;;;;;;;;;4939199;29;20038;-71
2021/10/02 00:48:46;;;;;;;7.70;1.92;;;;;;;;;;4934767;29;20035;-71
2021/10/02 00:51:14;;;;;;;7.40;1.85;;;;;;;;;;4929865;29;20024;-71
2021/10/02 00:53:40;;;;;;;8.43;2.20;;;;;;;;;;4933297;29;20441;-71
2021/10/02 00:56:06;;;;;;;10.73;2.20;;;;;;;;;;4953034;28;20509;-71
2021/10/02 00:58:32;;;;;;;5.63;1.48;;;;;;;;;;4939085;29;20020;-71
2021/10/02 01:01:01;;;;;;;9.10;1.70;;;;;;;;;;4934300;29;20027;-71
2021/10/02 01:03:27;;;;;;;8.30;1.80;;;;;;;;;;4936121;29;20024;-71
2021/10/02 01:06:16;;;;;;;6.63;1.73;;;;;;;;;;4934319;29;20110;-71
2021/10/02 01:08:56;;;;;;;5.63;1.77;;;;;;;;;;4928704;29;20040;-71
2021/10/02 01:11:57;;;;;;;10.20;2.20;;;;;;;;;;4936947;29;20078;-71
2021/10/02 01:14:41;;;;;;;5.72;1.63;;;;;;;;;;4870283;29;20033;-71
2021/10/02 01:17:13;;;;;;;10.63;2.03;;;;;;;;;;4930245;29;20047;-71
2021/10/02 01:19:48;;;;;;;6.80;1.80;;;;;;;;;;4941182;29;20031;-71
2021/10/02 01:22:20;;;;;;;8.48;1.88;;;;;;;;;;4939612;29;20555;-71
2021/10/02 01:25:05;;;;;;;8.13;1.80;;;;;;;;;;4935507;29;20032;-71
2021/10/02 01:27:46;;;;;;;5.32;1.75;;;;;;;;;;4934314;29;20528;-71
2021/10/02 01:49:20;;;;;;;9.90;2.72;;;;;;;;;;4927034;29;20043;-71
2021/10/02 01:51:47;;;;;;;7.25;2.13;;;;;;;;;;4932880;29;20036;-71
2021/10/02 01:54:14;;;;;;;10.32;2.80;;;;;;;;;;4933369;29;20028;-71
2021/10/02 01:56:41;;;;;;;9.40;2.60;;;;;;;;;;4938467;29;20043;-71
2021/10/02 01:59:10;;;;;;;9.05;2.70;;;;;;;;;;4933097;29;20027;-71
2021/10/02 02:01:37;;;;;;;6.57;2.42;;;;;;;;;;4934196;29;20027;-71
2021/10/02 02:04:04;;;;;;;6.88;2.40;;;;;;;;;;4932200;29;20051;-71
2021/10/02 02:06:30;;;;;;;8.25;2.45;;;;;;;;;;4932951;29;20039;-71
2021/10/02 02:08:56;;;;;;;9.90;2.72;;;;;;;;;;4932496;29;20032;-71
2021/10/02 02:11:23;;;;;;;13.18;2.60;;;;;;;;;;4940121;28;20032;-71
2021/10/02 02:13:51;;;;;;;9.38;3.80;;;;;;;;;;4941528;29;20499;-71
2021/10/02 02:16:17;;;;;;;15.32;3.30;;;;;;;;;;4936504;29;20079;-71
2021/10/02 02:18:43;;;;;;;7.65;3.75;;;;;;;;;;4931909;29;20051;-71
2021/10/02 02:21:10;;;;;;;8.15;3.00;;;;;;;;;;4939134;29;20031;-71
2021/10/02 02:23:36;;;;;;;9.63;3.65;;;;;;;;;;4932145;29;20035;-71
2021/10/02 02:26:05;;;;;;;7.15;3.13;;;;;;;;;;4941445;29;20516;-71
2021/10/02 02:28:32;;;;;;;8.98;3.72;;;;;;;;;;4934833;29;20059;-71
2021/10/02 02:30:59;;;;;;;10.13;3.78;;;;;;;;;;4933593;29;20035;-71
2021/10/02 02:33:25;;;;;;;14.50;4.50;;;;;;;;;;4933372;29;20035;-71
2021/10/02 02:35:52;;;;;;;8.23;3.63;;;;;;;;;;4949281;28;20134;-71
2021/10/02 02:38:18;;;;;;;9.70;3.80;;;;;;;;;;4932386;29;20028;-71
2021/10/02 02:40:45;;;;;;;15.35;4.13;;;;;;;;;;4934315;29;20059;-71
2021/10/02 02:43:11;;;;;;;5.88;3.40;;;;;;;;;;4935893;29;20038;-71
2021/10/02 02:45:38;;;;;;;10.25;3.72;;;;;;;;;;4945187;29;20637;-71
2021/10/02 02:48:10;;;;;;;10.30;3.55;;;;;;;;;;4937377;29;20034;-71
2021/10/02 02:50:54;;;;;;;13.20;4.85;;;;;;;;;;4937336;29;20027;-71
2021/10/02 02:53:29;;;;;;;11.52;4.78;;;;;;;;;;4931169;29;20576;-71
2021/10/02 02:55:58;;;;;;;14.85;4.40;;;;;;;;;;4937613;29;20071;-71
2021/10/02 02:58:25;;;;;;;14.50;5.13;;;;;;;;;;4932267;29;20241;-71
2021/10/02 03:01:00;;;;;;;17.38;5.30;;;;;;;;;;4932212;29;20110;-71
2021/10/02 03:03:28;;;;;;;12.35;5.32;;;;;;;;;;4929934;29;20024;-71
2021/10/02 03:06:00;;;;;;;16.17;5.85;;;;;;;;;;4941263;29;20035;-71
2021/10/02 03:08:29;;;;;;;16.45;6.03;;;;;;;;;;4931300;29;20024;-71
2021/10/02 03:11:00;;;;;;;18.45;6.22;;;;;;;;;;4932856;29;20515;-71
2021/10/02 03:13:27;;;;;;;23.33;6.50;;;;;;;;;;4933307;29;20420;-71
2021/10/02 03:15:53;;;;;;;13.07;6.03;;;;;;;;;;4932648;29;20031;-71
2021/10/02 03:18:20;;;;;;;15.70;7.00;;;;;;;;;;4934785;29;20024;-71
2021/10/02 03:20:50;;;;;;;14.60;6.40;;;;;;;;;;4930555;29;20414;-71
2021/10/02 03:23:17;;;;;;;14.50;6.90;;;;;;;;;;4937500;29;20024;-71
2021/10/02 03:25:45;;;;;;;18.23;6.20;;;;;;;;;;4933836;29;20035;-71
2021/10/02 03:28:11;;;;;;;17.92;6.05;;;;;;;;;;4931406;29;20075;-71
2021/10/02 03:30:37;;;;;;;18.13;5.88;;;;;;;;;;4933205;29;20031;-71
2021/10/02 03:33:04;;;;;;;16.10;5.95;;;;;;;;;;4936489;29;20083;-71
2021/10/02 03:35:30;;;;;;;20.60;6.13;;;;;;;;;;4932569;29;20056;-71
2021/10/02 03:37:56;;;;;;;13.68;6.35;;;;;;;;;;4933315;29;20408;-71
2021/10/02 03:40:22;;;;;;;13.68;5.75;;;;;;;;;;4932527;29;20031;-71
2021/10/02 03:42:50;;;;;;;14.25;5.32;;;;;;;;;;4933410;29;20027;-71
2021/10/02 03:45:16;;;;;;;13.90;5.90;;;;;;;;;;4934078;29;20094;-71
2021/10/02 03:47:43;;;;;;;12.75;5.10;;;;;;;;;;4935192;29;20035;-72
2021/10/02 03:50:09;;;;;;;14.45;4.70;;;;;;;;;;4941880;29;20043;-71
2021/10/02 03:52:35;;;;;;;17.17;6.60;;;;;;;;;;4932461;29;20032;-72
2021/10/02 03:55:02;;;;;;;16.77;4.78;;;;;;;;;;4932447;29;20106;-71
2021/10/02 03:57:28;;;;;;;11.70;5.63;;;;;;;;;;4936970;29;20031;-71
2021/10/02 03:59:54;;;;;;;15.70;5.20;;;;;;;;;;4931209;29;20094;-71
2021/10/02 04:02:20;;;;;;;19.63;4.93;;;;;;;;;;4947036;28;20552;-71
2021/10/02 04:04:46;;;;;;;21.08;4.95;;;;;;;;;;4932195;29;20028;-71
2021/10/02 04:07:12;;;;;;;19.90;6.18;;;;;;;;;;4933456;29;20028;-71
2021/10/02 04:09:39;;;;;;;11.60;4.70;;;;;;;;;;4932878;29;20396;-71
2021/10/02 04:12:05;;;;;;;21.15;5.68;;;;;;;;;;4941014;29;20411;-71
2021/10/02 04:14:31;;;;;;;14.32;4.65;;;;;;;;;;4938666;29;20036;-71
2021/10/02 04:16:58;;;;;;;12.43;5.32;;;;;;;;;;4937059;29;20039;-71
2021/10/02 04:19:24;;;;;;;11.38;5.63;;;;;;;;;;4929906;29;20118;-71
2021/10/02 04:21:50;;;;;;;11.88;4.20;;;;;;;;;;4932801;29;20039;-71
2021/10/02 04:24:16;;;;;;;14.38;5.53;;;;;;;;;;4940150;29;20064;-71
2021/10/02 04:26:43;;;;;;;10.00;4.50;;;;;;;;;;4933778;29;20050;-71
2021/10/02 04:29:09;;;;;;;13.73;4.75;;;;;;;;;;4932385;29;20588;-71
2021/10/02 04:31:35;;;;;;;13.98;5.03;;;;;;;;;;4942107;29;20483;-71
2021/10/02 04:34:01;;;;;;;16.20;4.85;;;;;;;;;;4937122;28;20094;-71
2021/10/02 04:36:27;;;;;;;16.08;5.63;;;;;;;;;;4935097;29;20031;-71
2021/10/02 04:38:54;;;;;;;18.65;5.90;;;;;;;;;;4932824;29;20697;-71
2021/10/02 04:41:20;;;;;;;15.18;5.85;;;;;;;;;;4937822;29;20036;-71
2021/10/02 04:43:47;;;;;;;22.52;6.63;;;;;;;;;;4934109;29;20508;-71
2021/10/02 04:46:14;;;;;;;13.40;5.57;;;;;;;;;;4939968;29;20030;-71
2021/10/02 04:48:41;;;;;;;14.30;6.25;;;;;;;;;;4934356;29;20038;-71
2021/10/02 04:51:07;;;;;;;16.77;5.70;;;;;;;;;;4947574;29;20035;-71
2021/10/02 04:53:33;;;;;;;17.35;5.30;;;;;;;;;;4934619;29;20563;-71
2021/10/02 04:56:00;;;;;;;13.25;5.15;;;;;;;;;;4935060;29;20492;-71
2021/10/02 04:58:29;;;;;;;14.07;5.70;;;;;;;;;;4934528;29;20528;-71
2021/10/02 05:00:55;;;;;;;13.60;5.85;;;;;;;;;;4935316;29;20024;-71
2021/10/02 05:03:22;;;;;;;16.65;6.15;;;;;;;;;;4935288;29;20090;-71
2021/10/02 05:05:48;;;;;;;15.90;5.32;;;;;;;;;;4936560;29;20038;-71
2021/10/02 05:08:14;;;;;;;17.25;5.53;;;;;;;;;;4940575;29;20027;-70
2021/10/02 05:10:40;;;;;;;14.60;5.82;;;;;;;;;;4942041;29;20039;-71
2021/10/02 05:13:07;;;;;;;17.30;5.90;;;;;;;;;;4941252;28;20036;-71
2021/10/02 05:15:33;;;;;;;22.02;7.15;;;;;;;;;;4936769;29;20035;-71
2021/10/02 05:17:59;;;;;;;16.77;6.13;;;;;;;;;;4934302;29;20032;-71
2021/10/02 05:20:25;;;;;;;20.15;6.10;;;;;;;;;;4933050;29;20035;-70
2021/10/02 05:22:51;;;;;;;13.77;5.78;;;;;;;;;;4934480;29;20063;-71
2021/10/02 05:25:17;;;;;;;17.35;6.22;;;;;;;;;;4934767;29;20082;-70
2021/10/02 05:27:43;;;;;;;20.08;6.85;;;;;;;;;;4943821;29;20030;-70
2021/10/02 05:30:10;;;;;;;14.85;6.47;;;;;;;;;;4933200;29;20504;-71
2021/10/02 05:32:36;;;;;;;13.20;5.93;;;;;;;;;;4935346;29;20032;-71
2021/10/02 05:35:02;;;;;;;17.85;6.10;;;;;;;;;;4933791;29;20031;-71
2021/10/02 05:37:28;;;;;;;17.67;7.07;;;;;;;;;;4928821;29;20034;-70
2021/10/02 05:39:54;;;;;;;13.25;5.85;;;;;;;;;;4932284;29;20058;-70
2021/10/02 05:42:21;;;;;;;14.50;6.70;;;;;;;;;;4940180;29;20079;-71
2021/10/02 05:44:47;;;;;;;18.60;7.47;;;;;;;;;;4933405;29;20035;-71
2021/10/02 05:47:13;;;;;;;19.15;7.07;;;;;;;;;;4940612;29;20031;-71
2021/10/02 05:49:41;;;;;;;17.15;6.60;;;;;;;;;;4936978;29;20029;-71
2021/10/02 05:52:09;;;;;;;22.27;7.50;;;;;;;;;;4941002;29;20047;-71
2021/10/02 05:54:35;;;;;;;20.65;7.70;;;;;;;;;;4942004;29;20030;-71
2021/10/02 05:57:01;;;;;;;18.08;7.72;;;;;;;;;;4938607;29;20039;-70
2021/10/02 05:59:27;;;;;;;26.50;7.50;;;;;;;;;;4932079;29;20039;-70
2021/10/02 06:01:53;;;;;;;19.70;8.10;;;;;;;;;;4932200;29;20027;-71
2021/10/02 06:04:19;;;;;;;19.10;7.90;;;;;;;;;;4935779;29;20019;-70
2021/10/02 06:06:45;;;;;;;23.55;7.93;;;;;;;;;;4935432;29;20034;-70
2021/10/02 06:09:11;;;;;;;23.33;8.55;;;;;;;;;;4936907;29;20449;-70
2021/10/02 06:11:37;;;;;;;17.33;7.82;;;;;;;;;;4940789;29;20146;-71
2021/10/02 06:14:03;;;;;;;16.45;7.70;;;;;;;;;;4937303;28;20392;-70
2021/10/02 06:16:30;;;;;;;24.75;8.80;;;;;;;;;;4933635;29;20444;-71
2021/10/02 06:18:56;;;;;;;25.77;9.63;;;;;;;;;;4934217;29;20110;-71
2021/10/02 06:21:22;;;;;;;16.63;7.60;;;;;;;;;;4938966;29;20131;-71
2021/10/02 06:23:48;;;;;;;23.52;8.32;;;;;;;;;;4936378;29;20035;-71
2021/10/02 06:26:14;;;;;;;18.73;8.10;;;;;;;;;;4934294;29;20024;-71
2021/10/02 06:28:40;;;;;;;24.48;9.10;;;;;;;;;;4937597;29;20459;-71
2021/10/02 06:31:06;;;;;;;24.75;7.88;;;;;;;;;;4945475;29;20110;-70
2021/10/02 06:33:32;;;;;;;19.67;8.35;;;;;;;;;;4937365;29;20028;-70
2021/10/02 06:35:58;;;;;;;23.42;9.18;;;;;;;;;;4939500;29;20034;-70
2021/10/02 06:38:25;;;;;;;22.23;7.80;;;;;;;;;;4939211;28;20035;-70
2021/10/02 06:40:51;;;;;;;18.38;7.45;;;;;;;;;;4945387;29;20039;-70
2021/10/02 06:43:17;;;;;;;19.42;8.02;;;;;;;;;;4944119;29;20039;-70
2021/10/02 06:45:43;;;;;;;16.42;7.22;;;;;;;;;;4933873;29;20386;-70
2021/10/02 06:48:09;;;;;;;20.27;7.65;;;;;;;;;;4923103;29;20464;-70
2021/10/02 06:50:35;;;;;;;24.95;8.65;;;;;;;;;;4927266;29;20090;-70
2021/10/02 06:53:02;;;;;;;17.50;6.68;;;;;;;;;;4933419;28;20040;-70
2021/10/02 06:55:28;;;;;;;15.98;7.80;;;;;;;;;;5021035;23;20477;-71
2021/10/02 06:57:54;;;;;;;16.45;6.97;;;;;;;;;;4970410;28;20026;-71
2021/10/02 07:00:20;;;;;;;24.98;7.97;;;;;;;;;;4969589;28;20076;-72
2021/10/02 07:02:46;;;;;;;17.80;7.95;;;;;;;;;;4973850;28;20026;-71
2021/10/02 07:05:14;;;;;;;24.42;7.30;;;;;;;;;;4969026;28;20034;-71
2021/10/02 07:07:40;;;;;;;21.83;8.43;;;;;;;;;;4965134;28;20031;-71
2021/10/02 07:10:07;;;;;;;18.17;7.30;;;;;;;;;;4968978;28;20060;-71
2021/10/02 07:12:34;;;;;;;20.92;8.15;;;;;;;;;;4971459;28;20034;-71
2021/10/02 07:15:00;;;;;;;15.52;7.00;;;;;;;;;;4970250;28;20042;-71
2021/10/02 07:17:27;;;;;;;15.80;6.75;;;;;;;;;;4970951;28;20029;-71
2021/10/02 07:19:53;;;;;;;12.15;6.43;;;;;;;;;;4964006;28;20027;-71
2021/10/02 07:22:19;;;;;;;18.10;5.72;;;;;;;;;;4968043;28;20046;-72
2021/10/02 07:24:45;;;;;;;24.05;6.88;;;;;;;;;;4975838;28;20493;-70
2021/10/02 07:27:11;;;;;;;18.90;6.50;;;;;;;;;;4970894;28;20055;-70
2021/10/02 07:29:37;;;;;;;14.80;6.57;;;;;;;;;;4960297;28;20026;-71
2021/10/02 07:32:03;;;;;;;18.92;6.22;;;;;;;;;;4972012;28;20497;-71
2021/10/02 07:34:29;;;;;;;12.88;6.47;;;;;;;;;;4976301;28;20064;-71
2021/10/02 07:36:55;;;;;;;17.05;6.07;;;;;;;;;;4972358;28;20121;-71
2021/10/02 07:39:22;;;;;;;19.67;7.65;;;;;;;;;;4964427;28;20382;-71
2021/10/02 07:41:49;;;;;;;18.08;7.95;;;;;;;;;;4983412;28;20027;-71
2021/10/02 07:44:17;;;;;;;20.73;8.07;;;;;;;;;;4980151;28;20049;-71
2021/10/02 07:46:48;;;;;;;24.75;9.90;;;;;;;;;;4967788;28;20066;-71
2021/10/02 07:49:15;;;;;;;23.05;10.40;;;;;;;;;;4967672;28;20030;-71
2021/10/02 07:51:41;;;;;;;24.52;10.77;;;;;;;;;;4971519;28;20061;-72
2021/10/02 07:54:08;;;;;;;23.70;10.38;;;;;;;;;;4970495;28;20033;-71
2021/10/02 07:56:37;;;;;;;22.35;10.98;;;;;;;;;;4972914;28;20107;-72
2021/10/02 07:59:06;;;;;;;21.05;10.38;;;;;;;;;;4969398;28;20490;-71
2021/10/02 08:01:32;;;;;;;24.73;12.32;;;;;;;;;;4981618;28;20027;-72
2021/10/02 08:04:02;;;;;;;23.73;12.18;;;;;;;;;;4976430;28;20034;-71
2021/10/02 08:06:29;;;;;;;25.27;12.68;;;;;;;;;;4975809;28;20026;-72
2021/10/02 08:08:55;;;;;;;29.95;13.93;;;;;;;;;;4973784;28;20082;-72
2021/10/02 08:11:21;;;;;;;30.50;16.55;;;;;;;;;;4979507;28;20025;-72
2021/10/02 08:13:47;;;;;;;38.30;18.00;;;;;;;;;;4966768;28;20621;-72
2021/10/02 08:16:15;;;;;;;40.25;17.85;;;;;;;;;;4975997;28;20027;-72
2021/10/02 08:18:43;;;;;;;38.85;18.55;;;;;;;;;;4969586;28;20027;-72
2021/10/02 08:21:09;;;;;;;36.60;19.27;;;;;;;;;;4972288;28;20035;-73
2021/10/02 08:23:36;;;;;;;38.10;20.45;;;;;;;;;;4975775;28;20433;-73
2021/10/02 08:26:03;;;;;;;43.47;23.95;;;;;;;;;;4963586;28;20489;-73
2021/10/02 08:28:32;;;;;;;44.85;22.73;;;;;;;;;;4970183;28;20023;-73
2021/10/02 08:30:59;;;;;;;51.85;22.55;;;;;;;;;;4972818;28;20026;-72
2021/10/02 08:33:25;;;;;;;46.65;23.50;;;;;;;;;;4970454;28;20085;-73
2021/10/02 08:35:51;;;;;;;54.40;24.95;;;;;;;;;;4973165;28;20034;-73
2021/10/02 08:38:18;;;;;;;51.30;26.08;;;;;;;;;;4971177;28;20031;-72
2021/10/02 08:40:44;;;;;;;55.63;24.67;;;;;;;;;;4973797;28;20023;-73
2021/10/02 08:43:15;;;;;;;59.58;25.08;;;;;;;;;;4972431;28;20116;-73
2021/10/02 08:45:41;;;;;;;58.78;24.08;;;;;;;;;;4983822;28;20493;-74
2021/10/02 08:48:12;;;;;;;62.85;25.75;;;;;;;;;;4970404;28;20031;-73
2021/10/02 08:50:40;;;;;;;52.60;25.20;;;;;;;;;;4971973;28;20046;-73
2021/10/02 08:53:06;;;;;;;55.55;23.38;;;;;;;;;;4970254;28;20035;-74
2021/10/02 08:55:34;;;;;;;56.53;24.95;;;;;;;;;;4971663;28;20524;-73
2021/10/02 08:58:00;;;;;;;57.53;22.77;;;;;;;;;;4972260;28;20078;-73
2021/10/02 09:00:26;;;;;;;50.20;20.45;;;;;;;;;;4967972;28;20169;-74
2021/10/02 09:02:52;;;;;;;56.85;24.15;;;;;;;;;;4969676;28;20109;-73
2021/10/02 09:05:19;;;;;;;62.47;25.05;;;;;;;;;;4971904;28;20094;-73
2021/10/02 09:07:47;;;;;;;66.32;25.33;;;;;;;;;;4972109;28;20503;-74
2021/10/02 09:10:14;;;;;;;59.65;22.98;;;;;;;;;;4970062;28;20031;-73
2021/10/02 09:12:40;;;;;;;55.90;22.33;;;;;;;;;;4971191;28;20408;-73
2021/10/02 09:15:07;;;;;;;53.35;24.10;;;;;;;;;;4972478;28;20031;-73
2021/10/02 09:17:33;;;;;;;57.80;25.70;;;;;;;;;;4972422;28;20081;-73
2021/10/02 09:20:00;;;;;;;55.30;22.08;;;;;;;;;;4962682;28;20818;-74
2021/10/02 09:22:27;;;;;;;54.05;21.75;;;;;;;;;;4973651;28;20106;-74
2021/10/02 09:24:55;;;;;;;59.40;24.70;;;;;;;;;;4972381;28;20019;-73
2021/10/02 09:27:23;;;;;;;55.20;24.92;;;;;;;;;;4973283;28;20405;-73
2021/10/02 09:29:51;;;;;;;50.97;20.58;;;;;;;;;;4968537;28;20039;-73
2021/10/02 09:32:19;;;;;;;52.30;23.13;;;;;;;;;;4965736;28;20031;-73
2021/10/02 09:34:55;;;;;;;50.55;22.90;;;;;;;;;;4972115;28;20061;-73
2021/10/02 09:37:21;;;;;;;49.67;22.52;;;;;;;;;;4966112;28;20062;-73
2021/10/02 09:39:47;;;;;;;51.00;24.92;;;;;;;;;;4965605;28;20034;-73
2021/10/02 09:42:34;;;;;;;56.30;23.58;;;;;;;;;;4966055;28;20029;-73
2021/10/02 09:45:01;;;;;;;44.22;21.70;;;;;;;;;;4972118;28;20110;-72
2021/10/02 09:47:28;;;;;;;45.92;20.50;;;;;;;;;;4968135;28;20027;-74
2021/10/02 09:49:54;;;;;;;49.92;23.30;;;;;;;;;;4965865;28;20076;-74
2021/10/02 09:52:31;;;;;;;52.80;23.77;;;;;;;;;;4971842;28;20049;-72
2021/10/02 09:54:57;;;;;;;54.08;24.63;;;;;;;;;;4971766;28;20039;-71
2021/10/02 09:57:23;;;;;;;50.42;23.20;;;;;;;;;;4972331;28;20442;-72
2021/10/02 09:59:54;;;;;;;49.58;21.58;;;;;;;;;;4969781;28;20531;-72
2021/10/02 10:02:28;;;;;;;39.80;20.45;;;;;;;;;;4972866;28;20110;-73
2021/10/02 10:04:56;;;;;;;41.15;19.90;;;;;;;;;;4970410;28;20077;-73
2021/10/02 10:07:23;;;;;;;40.00;20.38;;;;;;;;;;4972049;28;20023;-73
2021/10/02 10:10:09;;;;;;;38.03;18.77;;;;;;;;;;4968488;28;20477;-73
2021/10/02 10:12:38;;;;;;;41.38;17.77;;;;;;;;;;4972391;28;20031;-72
2021/10/02 10:15:06;;;;;;;33.97;18.35;;;;;;;;;;4971743;28;20382;-72
2021/10/02 10:17:32;;;;;;;36.03;17.10;;;;;;;;;;4976493;28;20030;-72
2021/10/02 10:20:09;;;;;;;39.13;16.05;;;;;;;;;;4966024;28;20042;-73
2021/10/02 10:22:36;;;;;;;30.92;16.00;;;;;;;;;;4971833;28;20125;-72
2021/10/02 10:25:09;;;;;;;26.63;15.63;;;;;;;;;;4971508;28;20114;-72
2021/10/02 10:27:40;;;;;;;30.77;16.00;;;;;;;;;;4972036;28;20015;-72
2021/10/02 10:30:07;;;;;;;34.77;16.63;;;;;;;;;;4967581;28;20035;-72
2021/10/02 10:32:33;;;;;;;29.85;16.33;;;;;;;;;;4971642;28;20894;-71
2021/10/02 10:34:59;;;;;;;26.33;15.05;;;;;;;;;;4969103;28;20416;-72
2021/10/02 10:37:25;;;;;;;32.72;16.27;;;;;;;;;;4967100;28;20042;-73
2021/10/02 10:39:57;;;;;;;32.42;15.68;;;;;;;;;;4964563;28;20042;-72
2021/10/02 10:42:26;;;;;;;28.27;14.88;;;;;;;;;;4971270;28;20077;-73
2021/10/02 10:44:53;;;;;;;25.27;14.95;;;;;;;;;;4971590;28;20027;-72
2021/10/02 10:47:19;;;;;;;30.95;14.90;;;;;;;;;;4964869;28;20027;-72
2021/10/02 10:49:46;;;;;;;28.30;14.13;;;;;;;;;;4976956;28;20397;-72
2021/10/02 10:52:15;;;;;;;31.05;14.32;;;;;;;;;;4969945;28;20054;-74
2021/10/02 10:54:44;;;;;;;26.67;13.45;;;;;;;;;;4970081;28;20055;-72
2021/10/02 10:57:29;;;;;;;21.63;11.55;;;;;;;;;;4965357;28;20037;-72
2021/10/02 10:59:55;;;;;;;26.30;14.90;;;;;;;;;;4966347;28;20069;-72
2021/10/02 11:02:44;;;;;;;27.98;12.82;;;;;;;;;;4971081;28;20530;-73
2021/10/02 11:05:29;;;;;;;23.88;13.23;;;;;;;;;;4971947;28;20082;-74
2021/10/02 11:07:55;;;;;;;34.15;13.45;;;;;;;;;;4970366;28;20121;-74
2021/10/02 11:10:40;;;;;;;26.17;12.50;;;;;;;;;;4968711;28;20041;-75
2021/10/02 11:13:06;;;;;;;34.40;14.07;;;;;;;;;;4968714;28;20523;-76
2021/10/02 11:15:32;;;;;;;25.88;12.02;;;;;;;;;;4965033;28;20477;-75
2021/10/02 11:17:58;;;;;;;24.50;13.35;;;;;;;;;;4966941;28;20035;-75
2021/10/02 11:20:35;;;;;;;27.08;12.45;;;;;;;;;;4967921;28;20035;-75
2021/10/02 11:23:19;;;;;;;22.63;12.43;;;;;;;;;;4970066;28;20621;-76
2021/10/02 11:25:45;;;;;;;20.75;13.02;;;;;;;;;;4969240;28;20030;-74
2021/10/02 11:28:27;;;;;;;27.90;12.35;;;;;;;;;;4962160;28;20327;-75
2021/10/02 11:30:55;;;;;;;24.52;11.63;;;;;;;;;;4969974;28;20037;-75
2021/10/02 11:33:47;;;;;;;29.50;12.10;;;;;;;;;;4967682;28;20139;-74
2021/10/02 11:36:31;;;;;;;25.20;11.95;;;;;;;;;;4970819;28;20045;-75
2021/10/02 11:39:12;;;;;;;20.48;10.88;;;;;;;;;;4970814;28;20030;-75
2021/10/02 11:41:39;;;;;;;21.38;9.95;;;;;;;;;;4970781;28;20069;-76
2021/10/02 11:44:05;;;;;;;22.63;12.63;;;;;;;;;;4970386;28;20035;-75
2021/10/02 11:46:31;;;;;;;27.35;12.77;;;;;;;;;;4966196;28;20031;-76
2021/10/02 11:49:18;;;;;;;22.27;12.55;;;;;;;;;;4965065;28;20030;-75
2021/10/02 11:52:04;;;;;;;25.35;13.82;;;;;;;;;;4969463;28;20023;-76
2021/10/02 11:54:30;;;;;;;26.55;14.10;;;;;;;;;;4964684;28;20031;-77
2021/10/02 11:57:07;;;;;;;25.70;15.35;;;;;;;;;;4969604;28;20061;-77
2021/10/02 11:59:33;;;;;;;28.48;13.70;;;;;;;;;;4967205;28;20076;-76
2021/10/02 12:02:02;;;;;;;23.60;13.45;;;;;;;;;;4969733;28;20019;-77
2021/10/02 12:04:29;;;;;;;24.50;14.35;;;;;;;;;;4970692;28;20027;-77
2021/10/02 12:06:55;;;;;;;28.40;13.32;;;;;;;;;;4966755;28;20050;-77
2021/10/02 12:09:21;;;;;;;25.45;12.30;;;;;;;;;;4967634;28;20114;-77
2021/10/02 12:11:48;;;;;;;22.08;10.80;;;;;;;;;;4970180;28;20031;-78
2021/10/02 12:14:18;;;;;;;22.58;11.27;;;;;;;;;;4969906;28;20026;-77
2021/10/02 12:16:50;;;;;;;16.30;11.07;;;;;;;;;;4964780;28;20158;-77
2021/10/02 12:19:22;;;;;;;20.02;13.32;;;;;;;;;;4967575;28;20035;-77
2021/10/02 12:21:48;;;;;;;19.38;11.50;;;;;;;;;;4969799;28;20027;-76
2021/10/02 12:24:17;;;;;;;20.17;11.18;;;;;;;;;;4969368;28;20023;-76
2021/10/02 12:26:56;;;;;;;25.20;11.55;;;;;;;;;;4969462;28;20027;-77
2021/10/02 12:29:23;;;;;;;25.13;11.93;;;;;;;;;;4967550;28;20037;-78
2021/10/02 12:31:55;;;;;;;19.83;11.05;;;;;;;;;;4970597;28;20038;-78
2021/10/02 12:34:21;;;;;;;;;;;;;;;;;;4966369;28;20027;-77
2021/10/02 12:36:49;;;;;;;17.52;11.73;;;;;;;;;;4967592;28;20380;-78
2021/10/02 12:39:16;;;;;;;23.50;12.40;;;;;;;;;;4964890;28;20045;-77
2021/10/02 12:41:43;;;;;;;30.98;13.63;;;;;;;;;;4968791;28;20041;-78
2021/10/02 12:44:36;;;;;;;20.02;10.45;;;;;;;;;;4967527;28;20058;-78
2021/10/02 12:47:03;;;;;;;24.38;11.27;;;;;;;;;;4966844;28;20031;-77
2021/10/02 12:49:32;;;;;;;20.10;11.68;;;;;;;;;;4969810;28;20026;-77
2021/10/02 12:52:00;;;;;;;23.27;12.15;;;;;;;;;;4972179;28;20031;-77
2021/10/02 12:54:27;;;;;;;21.05;11.63;;;;;;;;;;4965405;28;20429;-77
2021/10/02 12:56:54;;;;;;;19.58;11.48;;;;;;;;;;4968839;28;20046;-77
2021/10/02 12:59:20;;;;;;;23.25;12.40;;;;;;;;;;4969198;28;20023;-77
2021/10/02 13:01:47;;;;;;;21.70;12.10;;;;;;;;;;4967701;28;20031;-77
2021/10/02 13:04:16;;;;;;;23.83;13.90;;;;;;;;;;4972280;28;20034;-77
2021/10/02 13:06:52;;;;;;;26.70;13.77;;;;;;;;;;4970701;28;20030;-77
2021/10/02 13:09:19;;;;;;;23.13;14.20;;;;;;;;;;4970595;28;20026;-77
2021/10/02 13:11:46;;;;;;;23.95;14.30;;;;;;;;;;4971749;28;20031;-77
2021/10/02 13:14:28;;;;;;;20.70;12.80;;;;;;;;;;4970548;28;20037;-78
2021/10/02 13:17:09;;;;;;;23.73;13.97;;;;;;;;;;4969564;28;20106;-78
2021/10/02 13:19:35;;;;;;;22.17;12.95;;;;;;;;;;4961588;28;20023;-78
2021/10/02 13:22:10;;;;;;;19.15;13.95;;;;;;;;;;4976413;28;20077;-76
2021/10/02 13:24:36;;;;;;;24.58;15.25;;;;;;;;;;4969820;28;20050;-78
2021/10/02 13:27:10;;;;;;;22.17;13.05;;;;;;;;;;4970577;23;20055;-81
2021/10/02 13:29:36;;;;;;;25.70;12.82;;;;;;;;;;4950255;28;20019;-80
2021/10/02 13:32:15;;;;;;;22.23;12.13;;;;;;;;;;4933447;28;20082;-80
2021/10/02 13:34:54;;;;;;;20.23;11.38;;;;;;;;;;4937380;29;20518;-80
2021/10/02 13:37:27;;;;;;;18.50;10.85;;;;;;;;;;4955349;28;20027;-81
2021/10/02 13:39:54;;;;;;;24.48;11.68;;;;;;;;;;4940005;28;20501;-80
2021/10/02 13:42:21;;;;;;;18.90;10.68;;;;;;;;;;4935122;29;20035;-81
2021/10/02 13:44:54;;;;;;;20.70;10.55;;;;;;;;;;4957123;28;20031;-81
2021/10/02 13:47:22;;;;;;;22.23;10.02;;;;;;;;;;4944282;28;20027;-80
2021/10/02 13:49:48;;;;;;;22.67;11.38;;;;;;;;;;4949407;28;20051;-81
2021/10/02 13:52:14;;;;;;;17.42;9.98;;;;;;;;;;4939274;28;20089;-81
2021/10/02 13:54:40;;;;;;;17.27;9.93;;;;;;;;;;4936248;29;20050;-80
2021/10/02 13:57:07;;;;;;;22.83;10.77;;;;;;;;;;4947153;28;20027;-82
2021/10/02 13:59:33;;;;;;;19.98;8.90;;;;;;;;;;4932009;29;20414;-80
2021/10/02 14:01:59;;;;;;;22.90;11.05;;;;;;;;;;4949907;28;20034;-82
2021/10/02 14:04:25;;;;;;;24.15;11.55;;;;;;;;;;4939561;28;20027;-85
2021/10/02 14:06:55;;;;;;;21.13;9.73;;;;;;;;;;4950953;28;20023;-82
2021/10/02 14:09:21;;;;;;;16.80;9.35;;;;;;;;;;4953740;28;20396;-82
2021/10/02 14:11:47;;;;;;;16.00;9.05;;;;;;;;;;4953846;28;20038;-81
2021/10/02 14:14:13;;;;;;;16.88;7.95;;;;;;;;;;4952383;28;20055;-81
2021/10/02 14:16:39;;;;;;;21.42;8.20;;;;;;;;;;4946293;28;20031;-81
2021/10/02 14:19:05;;;;;;;14.07;8.65;;;;;;;;;;4938566;28;20346;-80
2021/10/02 14:21:32;;;;;;;16.75;9.25;;;;;;;;;;4969330;28;20039;-82
2021/10/02 14:23:58;;;;;;;14.55;8.90;;;;;;;;;;4962794;28;20047;-81
2021/10/02 14:26:24;;;;;;;16.60;8.82;;;;;;;;;;4976868;28;20043;-81
2021/10/02 14:28:50;;;;;;;25.55;9.07;;;;;;;;;;4959221;28;20035;-81
2021/10/02 14:31:16;;;;;;;14.98;8.35;;;;;;;;;;4957327;29;20031;-81
2021/10/02 14:33:46;;;;;;;14.52;8.50;;;;;;;;;;4975915;28;20411;-82
2021/10/02 14:36:12;;;;;;;20.13;7.45;;;;;;;;;;4975716;28;20019;-82
2021/10/02 14:38:40;;;;;;;15.02;6.60;;;;;;;;;;4964588;28;20105;-82
2021/10/02 14:41:06;;;;;;;16.88;7.20;;;;;;;;;;4980740;28;20099;-84
2021/10/02 14:43:32;;;;;;;15.10;6.45;;;;;;;;;;4964287;28;20031;-83
2021/10/02 14:46:00;;;;;;;19.35;7.15;;;;;;;;;;4960140;28;20038;-83
2021/10/02 14:48:26;;;;;;;19.77;7.30;;;;;;;;;;4978959;28;20248;-87
2021/10/02 14:50:52;;;;;;;18.33;6.43;;;;;;;;;;4973709;28;20023;-86
2021/10/02 14:53:19;;;;;;;16.35;6.18;;;;;;;;;;4980303;28;20082;-83
2021/10/02 14:55:49;;;;;;;14.25;5.05;;;;;;;;;;4972220;28;20024;-81
2021/10/02 14:58:16;;;;;;;18.08;4.90;;;;;;;;;;4952660;29;20094;-82
2021/10/02 15:00:46;;;;;;;19.98;6.20;;;;;;;;;;4985055;28;20039;-82
2021/10/02 15:03:12;;;;;;;18.95;5.25;;;;;;;;;;4960531;28;20035;-83
2021/10/02 15:05:38;;;;;;;13.88;4.60;;;;;;;;;;4958809;28;20042;-83
2021/10/02 15:08:05;;;;;;;14.55;5.63;;;;;;;;;;4954686;28;20031;-83
2021/10/02 15:10:31;;;;;;;12.65;4.20;;;;;;;;;;4953557;28;20046;-84
2021/10/02 15:12:57;;;;;;;15.00;4.97;;;;;;;;;;4950579;28;20071;-84
2021/10/02 15:15:24;;;;;;;9.32;4.00;;;;;;;;;;4954658;28;20059;-84
2021/10/02 15:17:50;;;;;;;16.58;4.80;;;;;;;;;;4941355;29;20066;-84
2021/10/02 15:20:16;;;;;;;9.50;3.38;;;;;;;;;;4950004;28;20035;-83
2021/10/02 15:22:46;;;;;;;12.32;3.85;;;;;;;;;;4945987;28;20039;-81
2021/10/02 15:25:12;;;;;;;11.98;4.25;;;;;;;;;;4944772;28;20055;-81
2021/10/02 15:27:43;;;;;;;7.90;3.45;;;;;;;;;;4957318;28;20062;-80
2021/10/02 15:30:10;;;;;;;12.80;3.83;;;;;;;;;;4930717;28;20134;-82
2021/10/02 15:32:37;;;;;;;10.27;4.05;;;;;;;;;;4932944;29;20067;-82
2021/10/02 15:35:04;;;;;;;11.90;3.72;;;;;;;;;;4950743;28;20051;-80